Cretcher, Missouri
Current Conditions -  °F | °C
As of 8:58 AM on Thursday 30 Oct 2014 (Local Time) from KSZL Reporting Station
Broken Clouds Broken Clouds  
Wind Chill: 50°   Ceiling: 9000
Heat Index: 50°   Visibility: 10mi
Dew Point: 41°   Wind: 7mph
Humidity: 71%   Direction: 220°SW
Pressure: 30.03"   Gusts: NA
Location:  38.9707°N, 93.4332°W
Report Text: KSZL 301358Z 22006KT 10SM BKN090 10/05 A3003 RMK AO2A SLP174 T01020052 $
Loading
Personal Weather Stations






























Interactive Weather Map
Tropical Storm Tracking
New forecast layout! Learn more

10-Day Weather Forecast

Advertisements
Track Severe Weather on mobile